createdAt,value
2017-05-18T00:00:11.193Z,23.54
2017-05-18T00:00:51.729Z,23.57
2017-05-18T00:01:32.251Z,23.63
2017-05-18T00:02:12.784Z,23.6
2017-05-18T00:02:53.315Z,23.5
2017-05-18T00:03:33.843Z,23.63
2017-05-18T00:04:14.365Z,23.53
2017-05-18T00:04:54.903Z,23.55
2017-05-18T00:05:35.444Z,23.5
2017-05-18T00:06:15.959Z,23.5
2017-05-18T00:06:56.490Z,23.55
2017-05-18T00:07:37.063Z,23.6
2017-05-18T00:08:17.578Z,23.57
2017-05-18T00:08:58.096Z,23.51
2017-05-18T00:09:38.610Z,23.57
2017-05-18T00:10:19.134Z,23.47
2017-05-18T00:10:59.644Z,23.54
2017-05-18T00:11:40.173Z,23.53
2017-05-18T00:12:20.704Z,23.57
2017-05-18T00:13:01.230Z,23.55
2017-05-18T00:13:41.756Z,23.46
2017-05-18T00:14:22.289Z,23.54
2017-05-18T00:15:02.814Z,23.53
2017-05-18T00:15:43.334Z,23.57
2017-05-18T00:16:23.853Z,23.4
2017-05-18T00:17:04.371Z,23.46
2017-05-18T00:17:44.914Z,23.54
2017-05-18T00:18:25.451Z,23.42
2017-05-18T00:19:05.968Z,23.47
2017-05-18T00:19:46.497Z,23.42
2017-05-18T00:20:27.014Z,23.53
2017-05-18T00:21:07.539Z,23.5
2017-05-18T00:21:48.081Z,23.39
2017-05-18T00:22:28.613Z,23.4
2017-05-18T00:23:09.139Z,23.48
2017-05-18T00:23:49.679Z,23.43
2017-05-18T00:24:30.201Z,23.43
2017-05-18T00:25:10.718Z,23.46
2017-05-18T00:25:51.245Z,23.43
2017-05-18T00:26:31.772Z,23.47
2017-05-18T00:27:12.298Z,23.47
2017-05-18T00:27:52.822Z,23.46
2017-05-18T00:28:33.338Z,23.4
2017-05-18T00:29:13.860Z,23.48
2017-05-18T00:29:54.384Z,23.48
2017-05-18T00:30:34.905Z,23.5
2017-05-18T00:31:15.426Z,23.5
2017-05-18T00:31:55.942Z,23.51
2017-05-18T00:32:36.470Z,23.42
2017-05-18T00:33:17.006Z,23.51
2017-05-18T00:33:57.532Z,23.54
2017-05-18T00:34:38.063Z,23.57
2017-05-18T00:35:18.585Z,23.54
2017-05-18T00:35:59.106Z,23.48
2017-05-18T00:36:39.629Z,23.55
2017-05-18T00:37:20.160Z,23.46
2017-05-18T00:38:00.685Z,23.47
2017-05-18T00:38:41.205Z,23.47
2017-05-18T00:39:21.729Z,23.63
2017-05-18T00:40:02.253Z,23.47
2017-05-18T00:40:42.772Z,23.55
2017-05-18T00:41:23.295Z,23.57
2017-05-18T00:42:03.827Z,23.57
2017-05-18T00:42:44.358Z,23.53
2017-05-18T00:43:24.896Z,23.48
2017-05-18T00:44:05.424Z,23.63
2017-05-18T00:44:45.941Z,23.54
2017-05-18T00:45:26.463Z,23.5
2017-05-18T00:46:06.995Z,23.57
2017-05-18T00:46:47.537Z,23.57
2017-05-18T00:47:28.058Z,23.51
2017-05-18T00:48:08.578Z,23.48
2017-05-18T00:48:49.105Z,23.55
2017-05-18T00:49:29.623Z,23.55
2017-05-18T00:50:10.137Z,23.48
2017-05-18T00:50:50.657Z,23.48
2017-05-18T00:51:31.185Z,23.43
2017-05-18T00:52:11.706Z,23.46
2017-05-18T00:52:52.227Z,23.54
2017-05-18T00:53:32.738Z,23.46
2017-05-18T00:54:13.279Z,23.47
2017-05-18T00:54:53.800Z,23.57
2017-05-18T00:55:34.340Z,23.6
2017-05-18T00:56:14.850Z,23.5
2017-05-18T00:56:55.378Z,23.57
2017-05-18T00:57:35.909Z,23.53
2017-05-18T00:58:16.434Z,23.58
2017-05-18T00:58:56.956Z,23.51
2017-05-18T00:59:37.474Z,23.55
2017-05-18T01:00:18.002Z,23.54
2017-05-18T01:00:58.522Z,23.42
2017-05-18T01:01:39.050Z,23.4
2017-05-18T01:02:19.580Z,23.43
2017-05-18T01:03:00.092Z,23.38
2017-05-18T01:03:40.619Z,23.39
2017-05-18T01:04:21.152Z,23.47
2017-05-18T01:05:01.669Z,23.53
2017-05-18T01:05:42.190Z,23.48
2017-05-18T01:06:22.706Z,23.48
2017-05-18T01:07:03.230Z,23.48
2017-05-18T01:07:43.746Z,23.35
2017-05-18T01:08:24.275Z,23.43
2017-05-18T01:09:04.806Z,23.35
2017-05-18T01:09:45.333Z,23.47
2017-05-18T01:10:25.856Z,23.4
2017-05-18T01:11:06.379Z,23.43
2017-05-18T01:11:46.904Z,23.4
2017-05-18T01:12:27.437Z,23.4
2017-05-18T01:13:07.956Z,23.27
2017-05-18T01:13:48.482Z,23.39
2017-05-18T01:14:29.002Z,23.43
2017-05-18T01:15:09.527Z,23.32
2017-05-18T01:15:50.055Z,23.36
2017-05-18T01:16:30.591Z,23.35
2017-05-18T01:17:11.123Z,23.33
2017-05-18T01:17:51.640Z,23.25
2017-05-18T01:18:32.164Z,23.25
2017-05-18T01:19:12.685Z,23.32
2017-05-18T01:19:53.205Z,23.16
2017-05-18T01:20:33.742Z,23.28
2017-05-18T01:21:14.261Z,23.35
2017-05-18T01:21:54.782Z,23.16
2017-05-18T01:22:35.314Z,23.17
2017-05-18T01:23:15.835Z,23.1
2017-05-18T01:23:56.362Z,23.17
2017-05-18T01:24:36.893Z,23.02
2017-05-18T01:25:17.412Z,22.98
2017-05-18T01:25:57.927Z,22.97
2017-05-18T01:26:38.443Z,22.98
2017-05-18T01:27:18.968Z,22.77
2017-05-18T01:27:59.503Z,22.79
2017-05-18T01:28:40.032Z,22.92
2017-05-18T01:29:20.563Z,22.7
2017-05-18T01:30:01.094Z,22.85
2017-05-18T01:30:41.620Z,22.73
2017-05-18T01:31:22.146Z,22.77
2017-05-18T01:32:02.667Z,22.85
2017-05-18T01:32:43.192Z,22.76
2017-05-18T01:33:23.713Z,22.77
2017-05-18T01:34:04.249Z,22.85
2017-05-18T01:34:44.760Z,22.85
2017-05-18T01:35:25.283Z,22.8
2017-05-18T01:36:05.805Z,22.85
2017-05-18T01:36:46.332Z,22.85
2017-05-18T01:37:26.853Z,22.77
2017-05-18T01:38:07.383Z,22.82
2017-05-18T01:38:47.901Z,22.82
2017-05-18T01:39:28.429Z,22.77
2017-05-18T01:40:08.951Z,22.82
2017-05-18T01:40:49.470Z,22.73
2017-05-18T01:41:30.014Z,22.76
2017-05-18T01:42:10.545Z,22.77
2017-05-18T01:42:51.069Z,22.8
2017-05-18T01:43:31.585Z,22.86
2017-05-18T01:44:12.120Z,22.85
2017-05-18T01:44:52.640Z,22.88
2017-05-18T01:45:33.156Z,22.75
2017-05-18T01:46:13.689Z,22.73
2017-05-18T01:46:54.216Z,22.76
2017-05-18T01:47:34.771Z,22.83
2017-05-18T01:48:15.287Z,22.85
2017-05-18T01:48:55.809Z,22.75
2017-05-18T01:50:48.981Z,22.91
2017-05-18T01:51:29.502Z,22.75
2017-05-18T01:52:10.025Z,22.88
2017-05-18T01:52:50.544Z,22.68
2017-05-18T01:53:31.071Z,22.64
2017-05-18T01:54:11.593Z,22.61
2017-05-18T01:54:52.111Z,22.75
2017-05-18T01:55:32.624Z,22.76
2017-05-18T01:56:13.156Z,22.77
2017-05-18T01:56:53.684Z,22.86
2017-05-18T01:57:34.203Z,22.91
2017-05-18T01:58:14.713Z,22.85
2017-05-18T01:58:55.245Z,22.85
2017-05-18T01:59:35.766Z,22.95
2017-05-18T02:00:16.288Z,22.97
2017-05-18T02:00:56.804Z,22.9
2017-05-18T02:01:37.322Z,22.85
2017-05-18T02:02:17.841Z,22.86
2017-05-18T02:02:58.355Z,22.79
2017-05-18T02:03:38.876Z,22.9
2017-05-18T02:04:19.391Z,22.73
2017-05-18T02:04:59.915Z,22.79
2017-05-18T02:05:40.435Z,22.8
2017-05-18T02:06:20.954Z,22.8
2017-05-18T02:07:01.463Z,22.83
2017-05-18T02:07:42.039Z,22.85
2017-05-18T02:08:22.495Z,22.72
2017-05-18T02:09:03.034Z,22.65
2017-05-18T02:09:43.548Z,22.62
2017-05-18T02:10:24.064Z,22.75
2017-05-18T02:11:04.587Z,22.85
2017-05-18T02:11:45.107Z,22.85
2017-05-18T02:12:25.623Z,22.72
2017-05-18T02:13:06.144Z,22.72
2017-05-18T02:13:46.681Z,22.6
2017-05-18T02:14:27.272Z,22.68
2017-05-18T02:15:07.790Z,22.68
2017-05-18T02:15:48.312Z,22.65
2017-05-18T02:16:28.847Z,22.68
2017-05-18T02:17:09.362Z,22.64
2017-05-18T02:17:49.882Z,22.67
2017-05-18T02:18:30.408Z,22.65
2017-05-18T02:19:10.922Z,22.65
2017-05-18T02:19:51.428Z,22.7
2017-05-18T02:20:31.955Z,22.73
2017-05-18T02:21:12.485Z,22.77
2017-05-18T02:21:53.007Z,22.75
2017-05-18T02:22:33.527Z,22.73
2017-05-18T02:23:14.049Z,22.7
2017-05-18T02:23:54.568Z,22.79
2017-05-18T02:24:35.079Z,22.76
2017-05-18T02:25:15.612Z,22.67
2017-05-18T02:25:56.134Z,22.49
2017-05-18T02:26:36.649Z,22.54
2017-05-18T02:27:17.168Z,22.57
2017-05-18T02:27:57.702Z,22.61
2017-05-18T02:28:38.235Z,22.47
2017-05-18T02:29:18.750Z,22.54
2017-05-18T02:29:59.277Z,22.52
2017-05-18T02:30:39.806Z,22.55
2017-05-18T02:31:20.326Z,22.58
2017-05-18T02:32:00.860Z,22.49
2017-05-18T02:32:41.376Z,22.55
2017-05-18T02:33:21.895Z,22.61
2017-05-18T02:34:02.423Z,22.6
2017-05-18T02:34:42.953Z,22.68
2017-05-18T02:35:23.480Z,22.65
2017-05-18T02:36:03.999Z,22.67
2017-05-18T02:36:44.509Z,22.73
2017-05-18T02:37:25.028Z,22.68
2017-05-18T02:38:05.548Z,22.49
2017-05-18T02:38:46.067Z,22.49
2017-05-18T02:39:26.600Z,22.58
2017-05-18T02:40:07.131Z,22.6
2017-05-18T02:40:47.649Z,22.54
2017-05-18T02:41:28.182Z,22.58
2017-05-18T02:42:08.696Z,22.61
2017-05-18T02:42:49.213Z,22.54
2017-05-18T02:43:29.734Z,22.54
2017-05-18T02:44:10.252Z,22.58
2017-05-18T02:44:50.775Z,22.55
2017-05-18T02:45:31.297Z,22.54
2017-05-18T02:46:11.817Z,22.54
2017-05-18T02:46:52.329Z,22.58
2017-05-18T02:47:32.850Z,22.42
2017-05-18T02:48:13.375Z,22.45
2017-05-18T02:48:53.897Z,22.4
2017-05-18T02:49:34.419Z,22.43
2017-05-18T02:50:14.947Z,22.37
2017-05-18T02:50:55.465Z,22.51
2017-05-18T02:51:35.987Z,22.54
2017-05-18T02:52:16.505Z,22.57
2017-05-18T02:52:57.023Z,22.45
2017-05-18T02:53:37.543Z,22.37
2017-05-18T02:54:18.068Z,22.35
2017-05-18T02:54:58.594Z,22.42
2017-05-18T02:55:39.111Z,22.42
2017-05-18T02:56:19.631Z,22.43
2017-05-18T02:57:00.154Z,22.46
2017-05-18T02:57:40.675Z,22.46
2017-05-18T02:58:21.206Z,22.47
2017-05-18T02:59:01.731Z,22.4
2017-05-18T02:59:42.243Z,22.4
2017-05-18T03:00:22.760Z,22.39
2017-05-18T03:01:03.288Z,22.28
2017-05-18T03:01:43.875Z,22.4
2017-05-18T03:02:24.342Z,22.42
2017-05-18T03:03:04.862Z,22.33
2017-05-18T03:03:45.405Z,22.27
2017-05-18T03:04:25.930Z,22.27
2017-05-18T03:05:06.444Z,22.31
2017-05-18T03:05:46.972Z,22.28
2017-05-18T03:06:27.507Z,22.35
2017-05-18T03:07:08.024Z,22.25
2017-05-18T03:07:48.546Z,22.18
2017-05-18T03:08:29.073Z,22.25
2017-05-18T03:09:09.595Z,22.2
2017-05-18T03:09:50.117Z,22.17
2017-05-18T03:10:30.639Z,22.12
2017-05-18T03:11:11.169Z,22.12
2017-05-18T03:11:51.723Z,22.1
2017-05-18T03:12:32.220Z,22.14
2017-05-18T03:13:12.750Z,22.21
2017-05-18T03:13:53.265Z,22
2017-05-18T03:14:33.813Z,22.03
2017-05-18T03:15:14.341Z,22.07
2017-05-18T03:15:54.875Z,22.12
2017-05-18T03:16:35.402Z,22.06
2017-05-18T03:17:15.924Z,22.07
2017-05-18T03:17:56.449Z,22.18
2017-05-18T03:18:36.964Z,22.02
2017-05-18T03:19:17.504Z,22.12
2017-05-18T03:19:58.034Z,22.14
2017-05-18T03:20:38.551Z,21.96
2017-05-18T03:21:19.079Z,21.98
2017-05-18T03:21:59.592Z,21.94
2017-05-18T03:22:40.120Z,21.98
2017-05-18T03:23:20.640Z,21.96
2017-05-18T03:24:01.161Z,21.86
2017-05-18T03:24:41.681Z,21.82
2017-05-18T03:25:22.203Z,21.92
2017-05-18T03:26:02.728Z,21.94
2017-05-18T03:26:43.244Z,21.92
2017-05-18T03:27:23.766Z,21.99
2017-05-18T03:28:04.286Z,22.03
2017-05-18T03:28:44.810Z,22.03
2017-05-18T03:29:25.333Z,22.07
2017-05-18T03:30:05.861Z,21.91
2017-05-18T03:30:46.378Z,21.92
2017-05-18T03:31:26.901Z,22.05
2017-05-18T03:32:07.421Z,22.02
2017-05-18T03:32:47.945Z,22.12
2017-05-18T03:33:28.463Z,22.1
2017-05-18T03:34:08.984Z,22.05
2017-05-18T03:34:49.504Z,22.1
2017-05-18T03:35:30.023Z,22.2
2017-05-18T03:36:10.539Z,22.17
2017-05-18T03:36:51.060Z,22.14
2017-05-18T03:37:31.577Z,22.09
2017-05-18T03:38:12.098Z,22.14
2017-05-18T03:38:52.618Z,22.2
2017-05-18T03:39:33.146Z,22.17
2017-05-18T03:40:13.658Z,22.06
2017-05-18T03:40:54.222Z,22.02
2017-05-18T03:41:34.693Z,22.03
2017-05-18T03:42:15.201Z,22.14
2017-05-18T03:42:55.722Z,22.03
2017-05-18T03:43:36.258Z,22.12
2017-05-18T03:44:16.783Z,22.2
2017-05-18T03:44:57.299Z,22.17
2017-05-18T03:45:37.825Z,22.15
2017-05-18T03:46:18.336Z,22.2
2017-05-18T03:46:58.849Z,22.2
2017-05-18T03:47:39.364Z,22.15
2017-05-18T03:48:19.885Z,22.31
2017-05-18T03:49:00.412Z,22.24
2017-05-18T03:49:40.936Z,22.21
2017-05-18T03:50:21.472Z,22.15
2017-05-18T03:51:01.999Z,22.15
2017-05-18T03:51:42.521Z,22.2
2017-05-18T03:52:23.038Z,22.18
2017-05-18T03:53:03.551Z,22.2
2017-05-18T03:53:44.090Z,22.35
2017-05-18T03:54:24.610Z,22.25
2017-05-18T03:55:05.126Z,22.31
2017-05-18T03:55:45.654Z,22.28
2017-05-18T03:56:26.167Z,22.36
2017-05-18T03:57:06.684Z,22.28
2017-05-18T03:57:47.213Z,22.3
2017-05-18T03:58:27.727Z,22.31
2017-05-18T03:59:08.249Z,22.33
2017-05-18T03:59:48.761Z,22.28
2017-05-18T04:00:29.284Z,22.31
2017-05-18T04:01:09.803Z,22.33
2017-05-18T04:01:50.326Z,22.4
2017-05-18T04:02:30.846Z,22.39
2017-05-18T04:03:11.368Z,22.35
2017-05-18T04:03:51.887Z,22.31
2017-05-18T04:04:32.415Z,22.33
2017-05-18T04:05:12.944Z,22.28
2017-05-18T04:05:53.463Z,22.22
2017-05-18T04:06:33.978Z,22.22
2017-05-18T04:07:14.498Z,22.18
2017-05-18T04:07:55.014Z,22.24
2017-05-18T04:08:35.535Z,22.33
2017-05-18T04:09:16.047Z,22.17
2017-05-18T04:09:56.565Z,22.3
2017-05-18T04:10:37.087Z,22.28
2017-05-18T04:11:17.766Z,22.25
2017-05-18T04:11:58.332Z,22.28
2017-05-18T04:12:39.035Z,22.35
2017-05-18T04:13:19.547Z,22.35
2017-05-18T04:14:00.192Z,22.4
2017-05-18T04:14:40.622Z,22.45
2017-05-18T04:15:21.140Z,22.46
2017-05-18T04:16:01.659Z,22.35
2017-05-18T04:16:42.294Z,22.3
2017-05-18T04:17:22.824Z,22.35
2017-05-18T04:18:03.336Z,22.31
2017-05-18T04:18:43.864Z,22.31
2017-05-18T04:19:24.382Z,22.3
2017-05-18T04:20:04.915Z,22.31
2017-05-18T04:20:45.438Z,22.27
2017-05-18T04:21:25.965Z,22.31
2017-05-18T04:22:06.486Z,22.22
2017-05-18T04:22:47.011Z,22.3
2017-05-18T04:23:27.543Z,22.21
2017-05-18T04:24:08.063Z,22.24
2017-05-18T04:24:48.597Z,22.2
2017-05-18T04:25:29.118Z,22.2
2017-05-18T04:26:09.639Z,22.18
2017-05-18T04:26:50.160Z,22.18
2017-05-18T04:27:30.677Z,22.24
2017-05-18T04:28:11.197Z,22.2
2017-05-18T04:28:51.717Z,22.28
2017-05-18T04:29:32.277Z,22.46
2017-05-18T04:30:12.775Z,22.42
2017-05-18T04:30:53.296Z,22.3
2017-05-18T04:31:33.829Z,22.3
2017-05-18T04:32:14.356Z,22.35
2017-05-18T04:32:54.880Z,22.22
2017-05-18T04:33:35.400Z,22.27
2017-05-18T04:34:15.920Z,22.28
2017-05-18T04:34:56.461Z,22.31
2017-05-18T04:35:36.975Z,22.46
2017-05-18T04:36:17.496Z,22.28
2017-05-18T04:36:58.013Z,22.35
2017-05-18T04:37:38.538Z,22.31
2017-05-18T04:38:19.107Z,22.3
2017-05-18T04:38:59.585Z,22.28
2017-05-18T04:39:40.117Z,22.33
2017-05-18T04:40:20.875Z,22.31
2017-05-18T04:41:01.440Z,22.28
2017-05-18T04:41:42.251Z,22.35
2017-05-18T04:42:22.787Z,22.31
2017-05-18T04:43:03.318Z,22.33
2017-05-18T04:43:43.834Z,22.3
2017-05-18T04:44:24.437Z,22.28
2017-05-18T04:45:04.906Z,22.35
2017-05-18T04:45:45.432Z,22.4
2017-05-18T04:46:25.970Z,22.36
2017-05-18T04:47:06.498Z,22.39
2017-05-18T04:47:47.026Z,22.43
2017-05-18T04:48:27.564Z,22.54
2017-05-18T04:49:08.328Z,22.39
2017-05-18T04:49:48.853Z,22.35
2017-05-18T04:50:29.368Z,22.47
2017-05-18T04:51:09.881Z,22.35
2017-05-18T04:51:50.402Z,22.28
2017-05-18T04:52:30.935Z,22.27
2017-05-18T04:53:11.456Z,22.33
2017-05-18T04:53:51.978Z,22.3
2017-05-18T04:54:32.495Z,22.27
2017-05-18T04:55:13.024Z,22.33
2017-05-18T04:55:53.555Z,22.31
2017-05-18T04:56:34.076Z,22.27
2017-05-18T04:57:14.613Z,22.22
2017-05-18T04:57:55.134Z,22.09
2017-05-18T04:58:35.666Z,22.02
2017-05-18T04:59:16.197Z,21.94
2017-05-18T04:59:56.716Z,21.86
2017-05-18T05:00:37.242Z,21.88
2017-05-18T05:01:17.765Z,21.77
2017-05-18T05:01:58.292Z,21.79
2017-05-18T05:02:38.811Z,21.98
2017-05-18T05:03:19.335Z,22.05
2017-05-18T05:03:59.859Z,22.15
2017-05-18T05:04:40.392Z,22.15
2017-05-18T05:05:20.924Z,22.15
2017-05-18T05:06:01.467Z,22.17
2017-05-18T05:06:42.005Z,22.18
2017-05-18T05:07:22.520Z,22.3
2017-05-18T05:08:03.048Z,22.35
2017-05-18T05:08:43.577Z,22.31
2017-05-18T05:09:24.560Z,22.2
2017-05-18T05:10:05.086Z,22.22
2017-05-18T05:10:45.627Z,22.37
2017-05-18T05:11:26.147Z,22.27
2017-05-18T05:12:06.669Z,22.31
2017-05-18T05:12:47.200Z,22.28
2017-05-18T05:13:27.998Z,22.31
2017-05-18T05:14:08.526Z,22.28
2017-05-18T05:14:49.050Z,22.31
2017-05-18T05:15:29.586Z,22.45
2017-05-18T05:16:10.107Z,22.46
2017-05-18T05:16:50.630Z,22.37
2017-05-18T05:17:31.152Z,22.33
2017-05-18T05:18:11.739Z,22.39
2017-05-18T05:18:52.182Z,22.28
2017-05-18T05:19:32.698Z,22.3
2017-05-18T05:20:13.245Z,22.3
2017-05-18T05:20:53.757Z,22.33
2017-05-18T05:21:34.340Z,22.33
2017-05-18T05:22:14.819Z,22.18
2017-05-18T05:22:55.342Z,22.31
2017-05-18T05:23:35.859Z,22.42
2017-05-18T05:24:16.384Z,22.45
2017-05-18T05:24:56.922Z,22.42
2017-05-18T05:25:37.444Z,22.39
2017-05-18T05:26:17.967Z,22.49
2017-05-18T05:26:58.489Z,22.55
2017-05-18T05:27:39.016Z,22.57
2017-05-18T05:28:19.531Z,22.55
2017-05-18T05:29:00.065Z,22.65
2017-05-18T05:29:40.601Z,22.61
2017-05-18T05:30:21.124Z,22.61
2017-05-18T05:31:01.764Z,22.52
2017-05-18T05:31:42.242Z,22.73
2017-05-18T05:32:22.763Z,22.57
2017-05-18T05:33:03.287Z,22.64
2017-05-18T05:33:43.826Z,22.61
2017-05-18T05:34:24.351Z,22.68
2017-05-18T05:35:04.879Z,22.75
2017-05-18T05:35:45.403Z,22.6
2017-05-18T05:36:25.943Z,22.57
2017-05-18T05:37:06.473Z,22.68
2017-05-18T05:37:47.002Z,22.67
2017-05-18T05:38:27.522Z,22.82
2017-05-18T05:39:08.047Z,22.72
2017-05-18T05:39:48.573Z,22.82
2017-05-18T05:40:29.076Z,22.83
2017-05-18T05:41:09.635Z,22.9
2017-05-18T05:41:50.156Z,22.83
2017-05-18T05:42:30.691Z,22.91
2017-05-18T05:43:11.420Z,22.86
2017-05-18T05:43:52.591Z,22.83
2017-05-18T05:44:33.121Z,22.62
2017-05-18T05:45:13.659Z,22.67
2017-05-18T05:45:54.197Z,22.61
2017-05-18T05:46:34.731Z,22.58
2017-05-18T05:47:15.260Z,22.55
2017-05-18T05:47:55.842Z,22.54
2017-05-18T05:48:36.349Z,22.4
2017-05-18T05:49:16.833Z,22.39
2017-05-18T05:49:57.337Z,22.47
2017-05-18T05:50:37.867Z,22.39
2017-05-18T05:51:18.384Z,22.36
2017-05-18T05:51:58.910Z,22.31
2017-05-18T05:52:39.439Z,22.31
2017-05-18T05:53:19.963Z,22.35
2017-05-18T05:54:00.546Z,22.31
2017-05-18T05:54:41.017Z,22.4
2017-05-18T05:55:21.536Z,22.43
2017-05-18T05:56:02.050Z,22.33
2017-05-18T05:56:42.566Z,22.31
2017-05-18T05:57:23.113Z,22.31
2017-05-18T05:58:03.583Z,22.31
2017-05-18T05:58:44.092Z,22.31
2017-05-18T05:59:24.615Z,22.33
2017-05-18T06:00:05.141Z,22.3
2017-05-18T06:00:45.646Z,22.3
2017-05-18T06:01:26.167Z,22.28
2017-05-18T06:02:06.706Z,22.42
2017-05-18T06:02:47.234Z,22.46
2017-05-18T06:03:27.762Z,22.57
2017-05-18T06:04:08.291Z,22.4
2017-05-18T06:06:10.605Z,22.39
2017-05-18T06:06:51.078Z,22.45
2017-05-18T06:07:31.581Z,22.52
2017-05-18T06:08:12.091Z,22.54
2017-05-18T06:08:52.612Z,22.57
2017-05-18T06:09:33.145Z,22.58
2017-05-18T06:10:13.665Z,22.45
2017-05-18T06:10:54.199Z,22.52
2017-05-18T06:11:34.859Z,22.51
2017-05-18T06:12:15.284Z,22.64
2017-05-18T06:12:55.804Z,22.64
2017-05-18T06:13:36.331Z,22.61
2017-05-18T06:14:16.850Z,22.57
2017-05-18T06:14:57.387Z,22.85
2017-05-18T06:15:37.928Z,22.75
2017-05-18T06:16:18.445Z,22.83
2017-05-18T06:16:58.971Z,22.85
2017-05-18T06:17:39.489Z,22.85
2017-05-18T06:18:20.006Z,22.76
2017-05-18T06:19:00.526Z,22.86
2017-05-18T06:19:41.050Z,22.83
2017-05-18T06:20:21.560Z,23
2017-05-18T06:21:02.084Z,23.15
2017-05-18T06:21:42.652Z,23.19
2017-05-18T06:22:23.178Z,23.12
2017-05-18T06:23:03.689Z,23.12
2017-05-18T06:23:44.207Z,23.13
2017-05-18T06:24:24.743Z,23.07
2017-05-18T06:25:06.228Z,23.2
2017-05-18T06:25:46.740Z,23.27
2017-05-18T06:28:00.030Z,23.5
2017-05-18T06:28:40.551Z,23.61
2017-05-18T06:29:21.066Z,23.61
2017-05-18T06:30:01.584Z,23.66
2017-05-18T06:30:42.110Z,23.73
2017-05-18T06:31:22.630Z,23.73
2017-05-18T06:32:03.157Z,23.76
2017-05-18T06:32:43.657Z,23.7
2017-05-18T06:33:24.180Z,23.75
2017-05-18T06:34:04.761Z,23.7
2017-05-18T06:34:45.214Z,23.83
2017-05-18T06:35:25.722Z,23.85
2017-05-18T06:36:06.258Z,23.98
2017-05-18T06:36:46.785Z,23.8
2017-05-18T06:37:27.285Z,23.88
2017-05-18T06:38:07.922Z,23.76
2017-05-18T06:38:48.389Z,23.75
2017-05-18T06:39:28.902Z,23.72
2017-05-18T06:40:09.397Z,23.69
2017-05-18T06:40:49.915Z,23.73
2017-05-18T06:41:30.384Z,23.88
2017-05-18T06:42:10.931Z,23.94
2017-05-18T06:42:51.395Z,24.06
2017-05-18T06:43:31.901Z,24.08
2017-05-18T06:44:12.426Z,24.13
2017-05-18T06:44:52.954Z,24.08
2017-05-18T06:45:33.463Z,24.16
2017-05-18T06:46:14.023Z,24.06
2017-05-18T06:47:51.887Z,24.25
2017-05-18T06:48:32.391Z,24.28
2017-05-18T06:49:12.913Z,24.18
2017-05-18T06:49:53.412Z,23.95
2017-05-18T06:50:33.927Z,23.95
2017-05-18T06:51:14.446Z,24
2017-05-18T06:51:54.956Z,24.06
2017-05-18T06:52:35.659Z,23.97
2017-05-18T06:53:16.143Z,23.93
2017-05-18T06:53:56.681Z,23.98
2017-05-18T06:54:37.214Z,23.95
2017-05-18T06:55:17.729Z,24.06
2017-05-18T06:55:58.249Z,24.15
2017-05-18T06:56:38.768Z,24.16
2017-05-18T06:57:19.318Z,24.2
2017-05-18T06:57:59.844Z,24.27
2017-05-18T06:58:40.368Z,24.15
2017-05-18T06:59:20.879Z,24.1
2017-05-18T07:00:01.412Z,24.25
2017-05-18T07:00:41.930Z,24.27
2017-05-18T07:01:22.450Z,24.32
2017-05-18T07:02:02.993Z,24.28
2017-05-18T07:02:43.542Z,24.25
2017-05-18T07:03:24.036Z,24.34
2017-05-18T07:04:04.625Z,24.32
2017-05-18T07:04:45.122Z,24.31
2017-05-18T07:05:25.647Z,24.35
2017-05-18T07:06:06.172Z,24.37
2017-05-18T07:06:46.699Z,24.45
2017-05-18T07:07:27.227Z,24.45
2017-05-18T07:08:07.736Z,24.46
2017-05-18T07:08:48.302Z,24.39
2017-05-18T07:09:28.786Z,24.57
2017-05-18T07:10:09.269Z,24.61
2017-05-18T07:10:49.863Z,24.64
2017-05-18T07:11:30.281Z,24.83
2017-05-18T07:12:10.746Z,24.91
2017-05-18T07:12:51.295Z,24.91
2017-05-18T07:13:31.847Z,24.93
2017-05-18T07:14:12.251Z,24.85
2017-05-18T07:14:52.784Z,24.81
2017-05-18T07:15:33.319Z,24.95
2017-05-18T07:16:13.751Z,25.06
2017-05-18T07:16:54.283Z,25.09
2017-05-18T07:17:34.722Z,24.95
2017-05-18T07:18:15.239Z,24.95
2017-05-18T07:18:55.793Z,25
2017-05-18T07:19:36.250Z,25
2017-05-18T07:20:16.678Z,25.05
2017-05-18T07:20:57.211Z,25.21
2017-05-18T07:21:37.713Z,25.14
2017-05-18T07:22:18.196Z,25.13
2017-05-18T07:22:58.714Z,24.98
2017-05-18T07:23:39.229Z,25.03
2017-05-18T07:24:19.664Z,25.09
2017-05-18T07:25:00.192Z,24.98
2017-05-18T07:25:40.784Z,25.13
2017-05-18T07:26:21.212Z,25.09
2017-05-18T07:27:01.644Z,25.13
2017-05-18T07:27:42.210Z,25.15
2017-05-18T07:28:22.696Z,25.28
2017-05-18T07:29:03.170Z,25.18
2017-05-18T07:29:43.658Z,25.13
2017-05-18T07:30:24.167Z,25.1
2017-05-18T07:31:04.693Z,25.14
2017-05-18T07:31:45.169Z,25.13
2017-05-18T07:32:25.649Z,25.23
2017-05-18T07:33:06.149Z,25.09
2017-05-18T07:33:46.686Z,25.24
2017-05-18T07:34:27.192Z,25.1
2017-05-18T07:35:07.700Z,25.09
2017-05-18T07:35:48.244Z,25.02
2017-05-18T07:36:28.785Z,25
2017-05-18T07:37:09.244Z,25.08
2017-05-18T07:37:49.734Z,25.14
2017-05-18T07:38:30.261Z,25.13
2017-05-18T07:39:10.780Z,25.25
2017-05-18T07:39:51.306Z,25
2017-05-18T07:40:31.829Z,24.98
2017-05-18T07:41:12.353Z,24.93
2017-05-18T07:41:52.882Z,24.9
2017-05-18T07:42:33.435Z,24.9
2017-05-18T07:43:13.947Z,24.9
2017-05-18T07:43:54.465Z,24.91
2017-05-18T07:44:34.985Z,24.67
2017-05-18T07:45:15.511Z,24.62
2017-05-18T07:45:56.064Z,24.57
2017-05-18T07:46:36.585Z,24.47
2017-05-18T07:47:17.104Z,24.49
2017-05-18T07:47:57.627Z,24.64
2017-05-18T07:48:38.144Z,24.64
2017-05-18T07:49:18.671Z,24.49
2017-05-18T07:49:59.184Z,24.5
2017-05-18T07:50:39.708Z,24.57
2017-05-18T07:51:20.223Z,24.45
2017-05-18T07:52:00.740Z,24.53
2017-05-18T07:52:41.280Z,24.46
2017-05-18T07:53:21.787Z,24.4
2017-05-18T07:54:02.310Z,24.39
2017-05-18T07:54:42.832Z,24.42
2017-05-18T07:55:23.347Z,24.58
2017-05-18T07:56:03.863Z,24.49
2017-05-18T07:56:44.402Z,24.47
2017-05-18T07:57:24.920Z,24.52
2017-05-18T07:58:05.437Z,24.65
2017-05-18T07:58:45.962Z,24.8
2017-05-18T07:59:26.490Z,24.71
2017-05-18T08:00:07.028Z,24.67
2017-05-18T08:00:47.553Z,24.8
2017-05-18T08:01:28.102Z,24.78
2017-05-18T08:02:08.656Z,24.81
2017-05-18T08:02:49.180Z,24.8
2017-05-18T08:03:29.720Z,24.85
2017-05-18T08:04:10.238Z,24.84
2017-05-18T08:04:50.760Z,24.78
2017-05-18T08:05:31.272Z,24.91
2017-05-18T08:06:11.779Z,24.68
2017-05-18T08:06:52.357Z,24.71
2017-05-18T08:07:32.882Z,24.73
2017-05-18T08:08:13.409Z,24.81
2017-05-18T08:08:53.923Z,24.69
2017-05-18T08:09:34.444Z,24.61
2017-05-18T08:10:14.965Z,24.52
2017-05-18T08:10:55.483Z,24.69
2017-05-18T08:11:36.005Z,24.5
2017-05-18T08:12:16.514Z,24.65
2017-05-18T08:12:57.035Z,24.5
2017-05-18T08:13:37.548Z,24.49
2017-05-18T08:14:18.074Z,24.64
2017-05-18T08:14:58.582Z,24.53
2017-05-18T08:15:39.113Z,24.55
2017-05-18T08:16:19.622Z,24.53
2017-05-18T08:17:00.142Z,24.58
2017-05-18T08:17:40.686Z,24.5
2017-05-18T08:18:21.173Z,24.58
2017-05-18T08:19:01.690Z,24.55
2017-05-18T08:19:42.224Z,24.47
2017-05-18T08:20:22.749Z,24.31
2017-05-18T08:21:03.263Z,24.3
2017-05-18T08:21:43.782Z,24.22
2017-05-18T08:22:24.306Z,24.15
2017-05-18T08:23:04.847Z,24.05
2017-05-18T08:23:45.347Z,24.06
2017-05-18T08:24:25.899Z,24.06
2017-05-18T08:25:06.426Z,24.1
2017-05-18T08:25:46.909Z,24.09
2017-05-18T08:26:27.436Z,24.1
2017-05-18T08:27:07.963Z,24.09
2017-05-18T08:27:48.480Z,24.15
2017-05-18T08:28:29.021Z,24.18
2017-05-18T08:29:09.552Z,24.21
2017-05-18T08:29:50.060Z,24.27
2017-05-18T08:30:30.583Z,24.3
2017-05-18T08:31:11.103Z,24.31
2017-05-18T08:31:51.610Z,24.35
2017-05-18T08:32:32.117Z,24.35
2017-05-18T08:33:12.643Z,24.43
2017-05-18T08:33:53.166Z,24.49
2017-05-18T08:34:33.685Z,24.5
2017-05-18T08:35:14.187Z,24.52
2017-05-18T08:35:54.689Z,24.58
2017-05-18T08:36:35.226Z,24.52
2017-05-18T08:37:15.734Z,24.4
2017-05-18T08:37:56.256Z,24.32
2017-05-18T08:38:36.850Z,24.27
2017-05-18T08:39:17.326Z,24.35
2017-05-18T08:39:57.866Z,24.42
2017-05-18T08:40:38.413Z,24.5
2017-05-18T08:41:18.921Z,24.52
2017-05-18T08:41:59.439Z,24.6
2017-05-18T08:42:39.962Z,24.67
2017-05-18T08:43:20.492Z,24.67
2017-05-18T08:44:01.012Z,24.68
2017-05-18T08:44:41.531Z,24.64
2017-05-18T08:45:22.043Z,24.68
2017-05-18T08:46:02.563Z,24.64
2017-05-18T08:46:43.094Z,24.5
2017-05-18T08:47:23.607Z,24.64
2017-05-18T08:48:04.127Z,24.45
2017-05-18T08:48:44.644Z,24.47
2017-05-18T08:49:25.172Z,24.46